sensor_id;sensor_type;location;lat;lon;timestamp;P1;durP1;ratioP1;P2;durP2;ratioP2
9934;SDS011;5006;41.828;23.478;2024-01-30T00:00:32;5.65;;;1.52;;
9934;SDS011;5006;41.828;23.478;2024-01-30T00:01:39;5.25;;;1.50;;
9934;SDS011;5006;41.828;23.478;2024-01-30T00:02:44;5.78;;;1.70;;
9934;SDS011;5006;41.828;23.478;2024-01-30T00:03:51;3.95;;;1.38;;
9934;SDS011;5006;41.828;23.478;2024-01-30T00:04:56;5.25;;;1.80;;
9934;SDS011;5006;41.828;23.478;2024-01-30T00:06:02;5.32;;;1.80;;
9934;SDS011;5006;41.828;23.478;2024-01-30T00:07:07;7.97;;;2.45;;
9934;SDS011;5006;41.828;23.478;2024-01-30T00:08:15;8.20;;;1.58;;
9934;SDS011;5006;41.828;23.478;2024-01-30T00:09:21;9.20;;;2.05;;
9934;SDS011;5006;41.828;23.478;2024-01-30T00:10:28;9.48;;;2.58;;
9934;SDS011;5006;41.828;23.478;2024-01-30T00:11:33;7.18;;;2.08;;
9934;SDS011;5006;41.828;23.478;2024-01-30T00:12:39;4.45;;;1.20;;
9934;SDS011;5006;41.828;23.478;2024-01-30T00:13:44;7.25;;;1.77;;
9934;SDS011;5006;41.828;23.478;2024-01-30T00:14:50;5.72;;;1.70;;
9934;SDS011;5006;41.828;23.478;2024-01-30T00:15:56;10.75;;;2.60;;
9934;SDS011;5006;41.828;23.478;2024-01-30T00:17:03;11.40;;;2.83;;
9934;SDS011;5006;41.828;23.478;2024-01-30T00:18:08;8.02;;;2.22;;
9934;SDS011;5006;41.828;23.478;2024-01-30T00:19:16;9.18;;;2.17;;
9934;SDS011;5006;41.828;23.478;2024-01-30T00:20:21;8.70;;;2.42;;
9934;SDS011;5006;41.828;23.478;2024-01-30T00:21:27;9.30;;;2.13;;
9934;SDS011;5006;41.828;23.478;2024-01-30T00:22:33;7.70;;;1.83;;
9934;SDS011;5006;41.828;23.478;2024-01-30T00:23:41;6.45;;;1.38;;
9934;SDS011;5006;41.828;23.478;2024-01-30T00:24:47;5.00;;;1.50;;
9934;SDS011;5006;41.828;23.478;2024-01-30T00:25:53;7.20;;;2.00;;
9934;SDS011;5006;41.828;23.478;2024-01-30T00:26:58;9.75;;;3.33;;
9934;SDS011;5006;41.828;23.478;2024-01-30T00:28:06;6.00;;;2.05;;
9934;SDS011;5006;41.828;23.478;2024-01-30T00:29:12;3.55;;;1.52;;
9934;SDS011;5006;41.828;23.478;2024-01-30T00:30:24;5.22;;;1.80;;
9934;SDS011;5006;41.828;23.478;2024-01-30T00:31:30;7.50;;;2.75;;
9934;SDS011;5006;41.828;23.478;2024-01-30T00:32:37;7.07;;;3.00;;
9934;SDS011;5006;41.828;23.478;2024-01-30T00:33:42;6.20;;;2.90;;
9934;SDS011;5006;41.828;23.478;2024-01-30T00:34:48;3.97;;;2.08;;
9934;SDS011;5006;41.828;23.478;2024-01-30T00:35:54;4.95;;;1.73;;
9934;SDS011;5006;41.828;23.478;2024-01-30T00:37:19;7.40;;;2.05;;
9934;SDS011;5006;41.828;23.478;2024-01-30T00:38:24;4.05;;;1.48;;
9934;SDS011;5006;41.828;23.478;2024-01-30T00:39:31;5.13;;;1.98;;
9934;SDS011;5006;41.828;23.478;2024-01-30T00:40:37;7.60;;;2.10;;
9934;SDS011;5006;41.828;23.478;2024-01-30T00:41:43;3.85;;;2.15;;
9934;SDS011;5006;41.828;23.478;2024-01-30T00:42:49;6.72;;;2.80;;
9934;SDS011;5006;41.828;23.478;2024-01-30T00:43:54;6.45;;;2.90;;
9934;SDS011;5006;41.828;23.478;2024-01-30T00:45:01;6.53;;;3.28;;
9934;SDS011;5006;41.828;23.478;2024-01-30T00:46:08;6.97;;;2.38;;
9934;SDS011;5006;41.828;23.478;2024-01-30T00:47:14;6.43;;;2.22;;
9934;SDS011;5006;41.828;23.478;2024-01-30T00:48:19;10.32;;;2.85;;
9934;SDS011;5006;41.828;23.478;2024-01-30T00:49:26;6.25;;;2.20;;
9934;SDS011;5006;41.828;23.478;2024-01-30T00:50:31;3.80;;;1.65;;
9934;SDS011;5006;41.828;23.478;2024-01-30T00:51:36;3.35;;;1.40;;
9934;SDS011;5006;41.828;23.478;2024-01-30T00:52:42;8.45;;;2.10;;
9934;SDS011;5006;41.828;23.478;2024-01-30T00:53:49;7.68;;;2.00;;
9934;SDS011;5006;41.828;23.478;2024-01-30T00:54:56;5.82;;;2.00;;
9934;SDS011;5006;41.828;23.478;2024-01-30T00:56:02;8.63;;;3.40;;
9934;SDS011;5006;41.828;23.478;2024-01-30T00:57:09;8.32;;;2.72;;
9934;SDS011;5006;41.828;23.478;2024-01-30T00:58:15;11.13;;;3.25;;
9934;SDS011;5006;41.828;23.478;2024-01-30T00:59:20;11.10;;;4.10;;
9934;SDS011;5006;41.828;23.478;2024-01-30T01:00:26;11.63;;;4.70;;
9934;SDS011;5006;41.828;23.478;2024-01-30T01:01:34;9.73;;;3.80;;
9934;SDS011;5006;41.828;23.478;2024-01-30T01:02:39;4.90;;;2.75;;
9934;SDS011;5006;41.828;23.478;2024-01-30T01:03:45;8.27;;;2.80;;
9934;SDS011;5006;41.828;23.478;2024-01-30T01:04:50;8.65;;;2.72;;
9934;SDS011;5006;41.828;23.478;2024-01-30T01:05:56;9.70;;;3.65;;
9934;SDS011;5006;41.828;23.478;2024-01-30T01:07:01;7.07;;;2.80;;
9934;SDS011;5006;41.828;23.478;2024-01-30T01:08:08;8.98;;;3.65;;
9934;SDS011;5006;41.828;23.478;2024-01-30T01:09:14;10.43;;;3.55;;
9934;SDS011;5006;41.828;23.478;2024-01-30T01:10:22;11.27;;;4.32;;
9934;SDS011;5006;41.828;23.478;2024-01-30T01:11:28;11.68;;;3.83;;
9934;SDS011;5006;41.828;23.478;2024-01-30T01:12:35;9.30;;;3.08;;
9934;SDS011;5006;41.828;23.478;2024-01-30T01:13:40;9.02;;;3.25;;
9934;SDS011;5006;41.828;23.478;2024-01-30T01:14:45;8.30;;;3.00;;
9934;SDS011;5006;41.828;23.478;2024-01-30T01:15:52;9.77;;;2.80;;
9934;SDS011;5006;41.828;23.478;2024-01-30T01:16:57;6.78;;;2.80;;
9934;SDS011;5006;41.828;23.478;2024-01-30T01:18:03;7.10;;;3.58;;
9934;SDS011;5006;41.828;23.478;2024-01-30T01:19:10;7.28;;;3.33;;
9934;SDS011;5006;41.828;23.478;2024-01-30T01:20:16;7.47;;;3.17;;
9934;SDS011;5006;41.828;23.478;2024-01-30T01:21:22;4.63;;;2.90;;
9934;SDS011;5006;41.828;23.478;2024-01-30T01:22:28;6.68;;;3.47;;
9934;SDS011;5006;41.828;23.478;2024-01-30T01:23:35;9.35;;;3.60;;
9934;SDS011;5006;41.828;23.478;2024-01-30T01:24:40;7.07;;;3.42;;
9934;SDS011;5006;41.828;23.478;2024-01-30T01:25:47;7.75;;;3.13;;
9934;SDS011;5006;41.828;23.478;2024-01-30T01:26:54;6.53;;;3.00;;
9934;SDS011;5006;41.828;23.478;2024-01-30T01:28:01;11.95;;;3.35;;
9934;SDS011;5006;41.828;23.478;2024-01-30T01:29:07;5.72;;;2.95;;
9934;SDS011;5006;41.828;23.478;2024-01-30T01:30:16;6.93;;;2.00;;
9934;SDS011;5006;41.828;23.478;2024-01-30T01:31:26;9.48;;;3.10;;
9934;SDS011;5006;41.828;23.478;2024-01-30T01:32:34;5.78;;;2.30;;
9934;SDS011;5006;41.828;23.478;2024-01-30T01:33:39;4.07;;;1.80;;
9934;SDS011;5006;41.828;23.478;2024-01-30T01:34:46;4.95;;;2.00;;
9934;SDS011;5006;41.828;23.478;2024-01-30T01:35:51;6.18;;;2.35;;
9934;SDS011;5006;41.828;23.478;2024-01-30T01:36:58;5.30;;;1.70;;
9934;SDS011;5006;41.828;23.478;2024-01-30T01:38:04;4.75;;;1.70;;
9934;SDS011;5006;41.828;23.478;2024-01-30T01:39:10;6.60;;;2.10;;
9934;SDS011;5006;41.828;23.478;2024-01-30T01:40:14;6.25;;;1.50;;
9934;SDS011;5006;41.828;23.478;2024-01-30T01:41:21;3.97;;;1.73;;
9934;SDS011;5006;41.828;23.478;2024-01-30T01:42:28;6.18;;;1.80;;
9934;SDS011;5006;41.828;23.478;2024-01-30T01:43:34;4.03;;;1.38;;
9934;SDS011;5006;41.828;23.478;2024-01-30T01:44:40;2.10;;;0.80;;
9934;SDS011;5006;41.828;23.478;2024-01-30T01:45:46;1.80;;;1.02;;
9934;SDS011;5006;41.828;23.478;2024-01-30T01:46:53;1.30;;;0.77;;
9934;SDS011;5006;41.828;23.478;2024-01-30T01:47:59;3.75;;;1.50;;
9934;SDS011;5006;41.828;23.478;2024-01-30T01:49:06;3.72;;;1.23;;
9934;SDS011;5006;41.828;23.478;2024-01-30T01:50:12;5.75;;;1.50;;
9934;SDS011;5006;41.828;23.478;2024-01-30T01:51:18;3.85;;;1.20;;
9934;SDS011;5006;41.828;23.478;2024-01-30T01:52:25;4.68;;;1.52;;
9934;SDS011;5006;41.828;23.478;2024-01-30T01:53:31;1.30;;;1.00;;
9934;SDS011;5006;41.828;23.478;2024-01-30T01:54:38;5.05;;;3.03;;
9934;SDS011;5006;41.828;23.478;2024-01-30T01:55:45;5.20;;;3.80;;
9934;SDS011;5006;41.828;23.478;2024-01-30T01:56:53;18.58;;;14.93;;
9934;SDS011;5006;41.828;23.478;2024-01-30T01:57:59;12.30;;;9.27;;
9934;SDS011;5006;41.828;23.478;2024-01-30T01:59:06;11.95;;;10.55;;
9934;SDS011;5006;41.828;23.478;2024-01-30T02:00:13;8.95;;;5.57;;
9934;SDS011;5006;41.828;23.478;2024-01-30T02:01:20;7.07;;;3.67;;
9934;SDS011;5006;41.828;23.478;2024-01-30T02:02:25;9.90;;;4.10;;
9934;SDS011;5006;41.828;23.478;2024-01-30T02:03:36;8.90;;;4.30;;
9934;SDS011;5006;41.828;23.478;2024-01-30T02:04:43;9.60;;;5.90;;
9934;SDS011;5006;41.828;23.478;2024-01-30T02:05:50;12.57;;;9.38;;
9934;SDS011;5006;41.828;23.478;2024-01-30T02:06:56;11.30;;;7.88;;
9934;SDS011;5006;41.828;23.478;2024-01-30T02:08:03;7.00;;;3.78;;
9934;SDS011;5006;41.828;23.478;2024-01-30T02:09:10;6.15;;;3.35;;
9934;SDS011;5006;41.828;23.478;2024-01-30T02:10:17;4.82;;;2.50;;
9934;SDS011;5006;41.828;23.478;2024-01-30T02:11:23;7.32;;;4.03;;
9934;SDS011;5006;41.828;23.478;2024-01-30T02:12:31;5.72;;;2.70;;
9934;SDS011;5006;41.828;23.478;2024-01-30T02:13:37;6.97;;;3.45;;
9934;SDS011;5006;41.828;23.478;2024-01-30T02:14:45;7.22;;;3.80;;
9934;SDS011;5006;41.828;23.478;2024-01-30T02:15:51;6.30;;;3.70;;
9934;SDS011;5006;41.828;23.478;2024-01-30T02:16:59;5.97;;;3.50;;
9934;SDS011;5006;41.828;23.478;2024-01-30T02:18:04;6.88;;;3.55;;
9934;SDS011;5006;41.828;23.478;2024-01-30T02:19:11;8.45;;;4.43;;
9934;SDS011;5006;41.828;23.478;2024-01-30T02:20:17;9.30;;;4.43;;
9934;SDS011;5006;41.828;23.478;2024-01-30T02:21:25;11.32;;;3.80;;
9934;SDS011;5006;41.828;23.478;2024-01-30T02:22:31;9.55;;;3.72;;
9934;SDS011;5006;41.828;23.478;2024-01-30T02:23:39;8.52;;;3.28;;
9934;SDS011;5006;41.828;23.478;2024-01-30T02:24:46;4.78;;;2.90;;
9934;SDS011;5006;41.828;23.478;2024-01-30T02:25:53;5.80;;;2.70;;
9934;SDS011;5006;41.828;23.478;2024-01-30T02:26:59;5.97;;;2.42;;
9934;SDS011;5006;41.828;23.478;2024-01-30T02:28:05;5.70;;;3.47;;
9934;SDS011;5006;41.828;23.478;2024-01-30T02:29:11;3.22;;;1.95;;
9934;SDS011;5006;41.828;23.478;2024-01-30T02:30:17;8.10;;;2.83;;
9934;SDS011;5006;41.828;23.478;2024-01-30T02:31:22;3.63;;;2.13;;
9934;SDS011;5006;41.828;23.478;2024-01-30T02:32:29;5.47;;;2.78;;
9934;SDS011;5006;41.828;23.478;2024-01-30T02:33:34;7.00;;;3.38;;
9934;SDS011;5006;41.828;23.478;2024-01-30T02:34:41;6.40;;;2.70;;
9934;SDS011;5006;41.828;23.478;2024-01-30T02:35:47;10.18;;;2.70;;
9934;SDS011;5006;41.828;23.478;2024-01-30T02:36:54;8.38;;;2.65;;
9934;SDS011;5006;41.828;23.478;2024-01-30T02:38:01;7.43;;;2.63;;
9934;SDS011;5006;41.828;23.478;2024-01-30T02:39:05;10.52;;;3.35;;
9934;SDS011;5006;41.828;23.478;2024-01-30T02:40:12;6.50;;;2.53;;
9934;SDS011;5006;41.828;23.478;2024-01-30T02:41:18;9.88;;;3.22;;
9934;SDS011;5006;41.828;23.478;2024-01-30T02:42:25;6.90;;;2.30;;
9934;SDS011;5006;41.828;23.478;2024-01-30T02:43:31;8.25;;;2.83;;
9934;SDS011;5006;41.828;23.478;2024-01-30T02:44:36;10.68;;;2.60;;
9934;SDS011;5006;41.828;23.478;2024-01-30T02:45:42;9.95;;;2.30;;
9934;SDS011;5006;41.828;23.478;2024-01-30T02:46:47;10.15;;;2.72;;
9934;SDS011;5006;41.828;23.478;2024-01-30T02:47:53;6.38;;;2.22;;
9934;SDS011;5006;41.828;23.478;2024-01-30T02:48:58;6.95;;;2.33;;
9934;SDS011;5006;41.828;23.478;2024-01-30T02:50:04;5.50;;;2.28;;
9934;SDS011;5006;41.828;23.478;2024-01-30T02:51:10;8.45;;;2.95;;
9934;SDS011;5006;41.828;23.478;2024-01-30T02:52:18;8.98;;;2.50;;
9934;SDS011;5006;41.828;23.478;2024-01-30T02:53:24;10.40;;;3.13;;
9934;SDS011;5006;41.828;23.478;2024-01-30T02:54:30;10.18;;;3.30;;
9934;SDS011;5006;41.828;23.478;2024-01-30T02:55:35;6.07;;;2.90;;
9934;SDS011;5006;41.828;23.478;2024-01-30T02:56:41;7.40;;;2.30;;
9934;SDS011;5006;41.828;23.478;2024-01-30T02:57:46;7.88;;;2.70;;
9934;SDS011;5006;41.828;23.478;2024-01-30T02:58:52;8.15;;;3.05;;
9934;SDS011;5006;41.828;23.478;2024-01-30T02:59:57;9.98;;;2.92;;
9934;SDS011;5006;41.828;23.478;2024-01-30T03:01:03;11.05;;;3.67;;
9934;SDS011;5006;41.828;23.478;2024-01-30T03:02:08;11.00;;;3.30;;
9934;SDS011;5006;41.828;23.478;2024-01-30T03:03:15;16.90;;;4.03;;
9934;SDS011;5006;41.828;23.478;2024-01-30T03:04:20;13.38;;;3.90;;
9934;SDS011;5006;41.828;23.478;2024-01-30T03:05:26;12.68;;;3.35;;
9934;SDS011;5006;41.828;23.478;2024-01-30T03:06:31;9.77;;;3.63;;
9934;SDS011;5006;41.828;23.478;2024-01-30T03:07:39;9.45;;;3.03;;
9934;SDS011;5006;41.828;23.478;2024-01-30T03:08:45;8.57;;;2.65;;
9934;SDS011;5006;41.828;23.478;2024-01-30T03:09:52;7.10;;;2.38;;
9934;SDS011;5006;41.828;23.478;2024-01-30T03:10:57;7.18;;;2.40;;
9934;SDS011;5006;41.828;23.478;2024-01-30T03:12:03;9.00;;;2.65;;
9934;SDS011;5006;41.828;23.478;2024-01-30T03:13:08;6.25;;;2.10;;
9934;SDS011;5006;41.828;23.478;2024-01-30T03:14:14;5.82;;;2.00;;
9934;SDS011;5006;41.828;23.478;2024-01-30T03:15:21;10.02;;;2.10;;
9934;SDS011;5006;41.828;23.478;2024-01-30T03:16:27;6.20;;;2.22;;
9934;SDS011;5006;41.828;23.478;2024-01-30T03:17:33;4.30;;;2.20;;
9934;SDS011;5006;41.828;23.478;2024-01-30T03:18:38;4.72;;;1.90;;
9934;SDS011;5006;41.828;23.478;2024-01-30T03:19:45;6.40;;;2.03;;
9934;SDS011;5006;41.828;23.478;2024-01-30T03:20:50;7.35;;;2.70;;
9934;SDS011;5006;41.828;23.478;2024-01-30T03:21:56;8.05;;;2.50;;
9934;SDS011;5006;41.828;23.478;2024-01-30T03:23:02;8.27;;;2.45;;
9934;SDS011;5006;41.828;23.478;2024-01-30T03:24:09;8.55;;;2.28;;
9934;SDS011;5006;41.828;23.478;2024-01-30T03:25:15;8.07;;;2.22;;
9934;SDS011;5006;41.828;23.478;2024-01-30T03:26:20;8.07;;;2.58;;
9934;SDS011;5006;41.828;23.478;2024-01-30T03:27:26;5.85;;;2.10;;
9934;SDS011;5006;41.828;23.478;2024-01-30T03:28:33;4.45;;;1.77;;
9934;SDS011;5006;41.828;23.478;2024-01-30T03:29:38;5.18;;;1.88;;
9934;SDS011;5006;41.828;23.478;2024-01-30T03:30:44;3.38;;;1.55;;
9934;SDS011;5006;41.828;23.478;2024-01-30T03:31:49;2.35;;;1.40;;
9934;SDS011;5006;41.828;23.478;2024-01-30T03:32:55;2.45;;;1.50;;
9934;SDS011;5006;41.828;23.478;2024-01-30T03:34:01;4.90;;;2.10;;
9934;SDS011;5006;41.828;23.478;2024-01-30T03:35:08;2.35;;;1.67;;
9934;SDS011;5006;41.828;23.478;2024-01-30T03:36:15;4.85;;;1.50;;
9934;SDS011;5006;41.828;23.478;2024-01-30T03:37:22;5.75;;;1.60;;
9934;SDS011;5006;41.828;23.478;2024-01-30T03:38:29;3.58;;;1.60;;
9934;SDS011;5006;41.828;23.478;2024-01-30T03:39:37;4.38;;;2.00;;
9934;SDS011;5006;41.828;23.478;2024-01-30T03:40:42;4.82;;;1.98;;
9934;SDS011;5006;41.828;23.478;2024-01-30T03:41:48;4.50;;;2.00;;
9934;SDS011;5006;41.828;23.478;2024-01-30T03:42:54;7.85;;;2.22;;
9934;SDS011;5006;41.828;23.478;2024-01-30T03:44:01;7.10;;;1.60;;
9934;SDS011;5006;41.828;23.478;2024-01-30T03:45:07;4.22;;;2.03;;
9934;SDS011;5006;41.828;23.478;2024-01-30T03:46:14;5.65;;;2.22;;
9934;SDS011;5006;41.828;23.478;2024-01-30T03:47:20;7.22;;;2.30;;
9934;SDS011;5006;41.828;23.478;2024-01-30T03:48:27;8.02;;;2.30;;
9934;SDS011;5006;41.828;23.478;2024-01-30T03:49:33;7.10;;;1.92;;
9934;SDS011;5006;41.828;23.478;2024-01-30T03:50:40;6.32;;;2.30;;
9934;SDS011;5006;41.828;23.478;2024-01-30T03:51:46;8.10;;;2.22;;
9934;SDS011;5006;41.828;23.478;2024-01-30T03:52:52;10.55;;;2.80;;
9934;SDS011;5006;41.828;23.478;2024-01-30T03:53:59;6.93;;;2.50;;
9934;SDS011;5006;41.828;23.478;2024-01-30T03:55:06;6.38;;;2.00;;
9934;SDS011;5006;41.828;23.478;2024-01-30T03:56:12;8.30;;;2.35;;
9934;SDS011;5006;41.828;23.478;2024-01-30T03:57:19;8.35;;;2.60;;
9934;SDS011;5006;41.828;23.478;2024-01-30T03:58:23;4.95;;;1.90;;
9934;SDS011;5006;41.828;23.478;2024-01-30T03:59:30;6.13;;;2.08;;
9934;SDS011;5006;41.828;23.478;2024-01-30T04:00:35;6.70;;;2.33;;
9934;SDS011;5006;41.828;23.478;2024-01-30T04:01:41;7.38;;;2.30;;
9934;SDS011;5006;41.828;23.478;2024-01-30T04:02:46;7.88;;;2.20;;
9934;SDS011;5006;41.828;23.478;2024-01-30T04:03:52;5.75;;;2.10;;
9934;SDS011;5006;41.828;23.478;2024-01-30T04:04:57;7.10;;;2.30;;
9934;SDS011;5006;41.828;23.478;2024-01-30T04:06:03;5.72;;;1.90;;
9934;SDS011;5006;41.828;23.478;2024-01-30T04:07:09;3.58;;;1.83;;
9934;SDS011;5006;41.828;23.478;2024-01-30T04:08:15;9.05;;;2.92;;
9934;SDS011;5006;41.828;23.478;2024-01-30T04:09:21;8.52;;;2.50;;
9934;SDS011;5006;41.828;23.478;2024-01-30T04:10:28;6.07;;;2.50;;
9934;SDS011;5006;41.828;23.478;2024-01-30T04:11:33;11.02;;;2.78;;
9934;SDS011;5006;41.828;23.478;2024-01-30T04:12:39;6.05;;;2.53;;
9934;SDS011;5006;41.828;23.478;2024-01-30T04:13:45;6.57;;;2.00;;
9934;SDS011;5006;41.828;23.478;2024-01-30T04:14:53;8.18;;;2.45;;
9934;SDS011;5006;41.828;23.478;2024-01-30T04:15:59;6.35;;;2.50;;
9934;SDS011;5006;41.828;23.478;2024-01-30T04:17:07;7.90;;;2.58;;
9934;SDS011;5006;41.828;23.478;2024-01-30T04:18:12;8.23;;;2.60;;
9934;SDS011;5006;41.828;23.478;2024-01-30T04:19:18;5.55;;;2.10;;
9934;SDS011;5006;41.828;23.478;2024-01-30T04:20:23;6.13;;;2.10;;
9934;SDS011;5006;41.828;23.478;2024-01-30T04:21:30;7.25;;;1.95;;
9934;SDS011;5006;41.828;23.478;2024-01-30T04:22:34;6.03;;;1.85;;
9934;SDS011;5006;41.828;23.478;2024-01-30T04:23:41;7.32;;;1.90;;
9934;SDS011;5006;41.828;23.478;2024-01-30T04:24:48;6.97;;;2.20;;
9934;SDS011;5006;41.828;23.478;2024-01-30T04:25:55;5.82;;;2.38;;
9934;SDS011;5006;41.828;23.478;2024-01-30T04:27:00;9.95;;;2.30;;
9934;SDS011;5006;41.828;23.478;2024-01-30T04:28:08;8.77;;;2.90;;
9934;SDS011;5006;41.828;23.478;2024-01-30T04:29:14;7.50;;;2.20;;
9934;SDS011;5006;41.828;23.478;2024-01-30T04:30:21;6.20;;;2.85;;
9934;SDS011;5006;41.828;23.478;2024-01-30T04:31:28;6.55;;;2.42;;
9934;SDS011;5006;41.828;23.478;2024-01-30T04:32:35;4.93;;;1.73;;
9934;SDS011;5006;41.828;23.478;2024-01-30T04:33:41;2.90;;;1.85;;
9934;SDS011;5006;41.828;23.478;2024-01-30T04:34:47;11.43;;;2.63;;
9934;SDS011;5006;41.828;23.478;2024-01-30T04:35:52;4.78;;;2.05;;
9934;SDS011;5006;41.828;23.478;2024-01-30T04:36:58;7.22;;;2.80;;
9934;SDS011;5006;41.828;23.478;2024-01-30T04:38:04;7.15;;;2.70;;
9934;SDS011;5006;41.828;23.478;2024-01-30T04:39:10;7.47;;;2.20;;
9934;SDS011;5006;41.828;23.478;2024-01-30T04:40:18;8.20;;;3.08;;
9934;SDS011;5006;41.828;23.478;2024-01-30T04:41:24;5.10;;;2.20;;
9934;SDS011;5006;41.828;23.478;2024-01-30T04:42:31;8.88;;;2.50;;
9934;SDS011;5006;41.828;23.478;2024-01-30T04:43:37;7.32;;;2.70;;
9934;SDS011;5006;41.828;23.478;2024-01-30T04:44:43;8.20;;;3.05;;
9934;SDS011;5006;41.828;23.478;2024-01-30T04:45:48;5.28;;;2.65;;
9934;SDS011;5006;41.828;23.478;2024-01-30T04:46:55;11.05;;;2.60;;
9934;SDS011;5006;41.828;23.478;2024-01-30T04:48:03;7.53;;;2.83;;
9934;SDS011;5006;41.828;23.478;2024-01-30T04:49:10;9.05;;;2.85;;
9934;SDS011;5006;41.828;23.478;2024-01-30T04:50:16;5.13;;;2.80;;
9934;SDS011;5006;41.828;23.478;2024-01-30T04:51:23;3.78;;;2.28;;
9934;SDS011;5006;41.828;23.478;2024-01-30T04:52:29;3.63;;;2.10;;
9934;SDS011;5006;41.828;23.478;2024-01-30T04:53:34;6.43;;;2.78;;
9934;SDS011;5006;41.828;23.478;2024-01-30T04:54:40;9.48;;;2.92;;
9934;SDS011;5006;41.828;23.478;2024-01-30T04:55:47;6.97;;;2.95;;
9934;SDS011;5006;41.828;23.478;2024-01-30T04:56:53;7.10;;;2.50;;
9934;SDS011;5006;41.828;23.478;2024-01-30T04:57:59;9.05;;;2.78;;
9934;SDS011;5006;41.828;23.478;2024-01-30T04:59:04;4.80;;;2.30;;
9934;SDS011;5006;41.828;23.478;2024-01-30T05:00:10;6.50;;;2.50;;
9934;SDS011;5006;41.828;23.478;2024-01-30T05:01:17;6.50;;;2.63;;
9934;SDS011;5006;41.828;23.478;2024-01-30T05:02:23;7.30;;;2.65;;
9934;SDS011;5006;41.828;23.478;2024-01-30T05:03:27;5.82;;;2.47;;
9934;SDS011;5006;41.828;23.478;2024-01-30T05:04:34;5.93;;;2.75;;
9934;SDS011;5006;41.828;23.478;2024-01-30T05:05:40;5.95;;;2.40;;
9934;SDS011;5006;41.828;23.478;2024-01-30T05:06:47;8.43;;;2.53;;
9934;SDS011;5006;41.828;23.478;2024-01-30T05:07:52;5.07;;;2.53;;
9934;SDS011;5006;41.828;23.478;2024-01-30T05:08:58;5.18;;;2.13;;
9934;SDS011;5006;41.828;23.478;2024-01-30T05:10:03;6.45;;;2.90;;
9934;SDS011;5006;41.828;23.478;2024-01-30T05:11:11;5.75;;;2.30;;
9934;SDS011;5006;41.828;23.478;2024-01-30T05:12:17;8.27;;;2.45;;
9934;SDS011;5006;41.828;23.478;2024-01-30T05:13:23;6.40;;;2.88;;
9934;SDS011;5006;41.828;23.478;2024-01-30T05:14:28;7.30;;;3.65;;
9934;SDS011;5006;41.828;23.478;2024-01-30T05:15:34;9.60;;;3.08;;
9934;SDS011;5006;41.828;23.478;2024-01-30T05:16:39;5.65;;;2.72;;
9934;SDS011;5006;41.828;23.478;2024-01-30T05:17:45;5.63;;;2.45;;
9934;SDS011;5006;41.828;23.478;2024-01-30T05:18:50;8.25;;;2.70;;
9934;SDS011;5006;41.828;23.478;2024-01-30T05:19:56;8.30;;;2.90;;
9934;SDS011;5006;41.828;23.478;2024-01-30T05:21:01;7.90;;;2.50;;
9934;SDS011;5006;41.828;23.478;2024-01-30T05:22:08;4.15;;;2.20;;
9934;SDS011;5006;41.828;23.478;2024-01-30T05:23:14;5.90;;;2.70;;
9934;SDS011;5006;41.828;23.478;2024-01-30T05:24:20;8.55;;;2.90;;
9934;SDS011;5006;41.828;23.478;2024-01-30T05:25:25;7.57;;;2.83;;
9934;SDS011;5006;41.828;23.478;2024-01-30T05:26:32;5.50;;;2.70;;
9934;SDS011;5006;41.828;23.478;2024-01-30T05:27:36;5.88;;;2.40;;
9934;SDS011;5006;41.828;23.478;2024-01-30T05:28:43;5.80;;;2.55;;
9934;SDS011;5006;41.828;23.478;2024-01-30T05:29:49;4.32;;;2.63;;
9934;SDS011;5006;41.828;23.478;2024-01-30T05:30:56;4.38;;;2.35;;
9934;SDS011;5006;41.828;23.478;2024-01-30T05:32:02;7.20;;;3.05;;
9934;SDS011;5006;41.828;23.478;2024-01-30T05:33:09;8.00;;;2.95;;
9934;SDS011;5006;41.828;23.478;2024-01-30T05:34:16;6.15;;;2.90;;
9934;SDS011;5006;41.828;23.478;2024-01-30T05:35:22;6.57;;;3.20;;
9934;SDS011;5006;41.828;23.478;2024-01-30T05:36:28;5.47;;;3.13;;
9934;SDS011;5006;41.828;23.478;2024-01-30T05:37:33;6.03;;;2.63;;
9934;SDS011;5006;41.828;23.478;2024-01-30T05:38:39;4.07;;;2.95;;
9934;SDS011;5006;41.828;23.478;2024-01-30T05:39:45;6.93;;;3.38;;
9934;SDS011;5006;41.828;23.478;2024-01-30T05:40:50;6.00;;;3.15;;
9934;SDS011;5006;41.828;23.478;2024-01-30T05:41:57;8.80;;;4.03;;
9934;SDS011;5006;41.828;23.478;2024-01-30T05:43:02;12.30;;;3.90;;
9934;SDS011;5006;41.828;23.478;2024-01-30T05:44:09;8.05;;;3.42;;
9934;SDS011;5006;41.828;23.478;2024-01-30T05:45:15;7.20;;;3.35;;
9934;SDS011;5006;41.828;23.478;2024-01-30T05:46:21;6.75;;;2.92;;
9934;SDS011;5006;41.828;23.478;2024-01-30T05:47:27;8.00;;;2.70;;
9934;SDS011;5006;41.828;23.478;2024-01-30T05:48:34;10.68;;;3.47;;
9934;SDS011;5006;41.828;23.478;2024-01-30T05:49:40;10.40;;;2.80;;
9934;SDS011;5006;41.828;23.478;2024-01-30T05:50:45;8.02;;;3.10;;
9934;SDS011;5006;41.828;23.478;2024-01-30T05:51:52;7.53;;;3.10;;
9934;SDS011;5006;41.828;23.478;2024-01-30T05:52:57;7.90;;;3.08;;
9934;SDS011;5006;41.828;23.478;2024-01-30T05:54:03;6.35;;;2.45;;
9934;SDS011;5006;41.828;23.478;2024-01-30T05:55:09;4.55;;;2.50;;
9934;SDS011;5006;41.828;23.478;2024-01-30T05:56:16;9.73;;;3.38;;
9934;SDS011;5006;41.828;23.478;2024-01-30T05:57:22;7.38;;;2.90;;
9934;SDS011;5006;41.828;23.478;2024-01-30T05:58:29;9.23;;;3.05;;
9934;SDS011;5006;41.828;23.478;2024-01-30T05:59:36;10.18;;;3.92;;
9934;SDS011;5006;41.828;23.478;2024-01-30T06:00:43;5.80;;;2.80;;
9934;SDS011;5006;41.828;23.478;2024-01-30T06:01:48;12.02;;;3.42;;
9934;SDS011;5006;41.828;23.478;2024-01-30T06:02:55;9.15;;;2.78;;
9934;SDS011;5006;41.828;23.478;2024-01-30T06:04:00;11.85;;;3.22;;
9934;SDS011;5006;41.828;23.478;2024-01-30T06:05:06;9.85;;;2.97;;
9934;SDS011;5006;41.828;23.478;2024-01-30T06:06:12;8.38;;;3.22;;
9934;SDS011;5006;41.828;23.478;2024-01-30T06:07:19;7.38;;;3.20;;
9934;SDS011;5006;41.828;23.478;2024-01-30T06:08:24;6.90;;;2.97;;
9934;SDS011;5006;41.828;23.478;2024-01-30T06:09:30;6.18;;;2.67;;
9934;SDS011;5006;41.828;23.478;2024-01-30T06:10:35;7.38;;;3.08;;
9934;SDS011;5006;41.828;23.478;2024-01-30T06:11:41;5.25;;;2.67;;
9934;SDS011;5006;41.828;23.478;2024-01-30T06:12:47;5.35;;;3.03;;
9934;SDS011;5006;41.828;23.478;2024-01-30T06:13:54;6.70;;;2.95;;
9934;SDS011;5006;41.828;23.478;2024-01-30T06:14:59;6.30;;;2.78;;
9934;SDS011;5006;41.828;23.478;2024-01-30T06:16:05;4.38;;;2.83;;
9934;SDS011;5006;41.828;23.478;2024-01-30T06:17:13;3.95;;;2.50;;
9934;SDS011;5006;41.828;23.478;2024-01-30T06:18:20;6.25;;;3.20;;
9934;SDS011;5006;41.828;23.478;2024-01-30T06:19:25;5.95;;;2.90;;
9934;SDS011;5006;41.828;23.478;2024-01-30T06:20:31;7.05;;;3.15;;
9934;SDS011;5006;41.828;23.478;2024-01-30T06:21:36;7.13;;;2.85;;
9934;SDS011;5006;41.828;23.478;2024-01-30T06:22:43;5.57;;;2.80;;
9934;SDS011;5006;41.828;23.478;2024-01-30T06:23:48;8.25;;;2.90;;
9934;SDS011;5006;41.828;23.478;2024-01-30T06:24:55;9.88;;;3.50;;
9934;SDS011;5006;41.828;23.478;2024-01-30T06:26:00;9.10;;;2.90;;
9934;SDS011;5006;41.828;23.478;2024-01-30T06:27:06;7.25;;;3.08;;
9934;SDS011;5006;41.828;23.478;2024-01-30T06:28:13;7.07;;;3.67;;
9934;SDS011;5006;41.828;23.478;2024-01-30T06:29:23;7.65;;;3.08;;
9934;SDS011;5006;41.828;23.478;2024-01-30T06:30:29;6.22;;;2.70;;
9934;SDS011;5006;41.828;23.478;2024-01-30T06:31:39;9.23;;;2.85;;
9934;SDS011;5006;41.828;23.478;2024-01-30T06:32:46;6.60;;;2.90;;
9934;SDS011;5006;41.828;23.478;2024-01-30T06:33:53;10.00;;;3.08;;
9934;SDS011;5006;41.828;23.478;2024-01-30T06:34:59;6.90;;;2.90;;
9934;SDS011;5006;41.828;23.478;2024-01-30T06:36:08;2.65;;;1.95;;
9934;SDS011;5006;41.828;23.478;2024-01-30T06:37:12;6.00;;;2.55;;
9934;SDS011;5006;41.828;23.478;2024-01-30T06:38:19;3.10;;;1.90;;
9934;SDS011;5006;41.828;23.478;2024-01-30T06:39:25;2.97;;;1.67;;
9934;SDS011;5006;41.828;23.478;2024-01-30T06:40:32;3.03;;;1.90;;
9934;SDS011;5006;41.828;23.478;2024-01-30T06:41:37;4.13;;;2.80;;
9934;SDS011;5006;41.828;23.478;2024-01-30T06:42:43;4.28;;;2.67;;
9934;SDS011;5006;41.828;23.478;2024-01-30T06:43:49;5.38;;;2.63;;
9934;SDS011;5006;41.828;23.478;2024-01-30T06:44:56;6.15;;;3.78;;